createdAt,value
2022-08-11T00:01:01.674Z,5.00
2022-08-11T00:03:43.608Z,2.00
2022-08-11T00:06:11.688Z,7.00
2022-08-11T00:08:39.359Z,7.00
2022-08-11T00:11:07.048Z,5.80
2022-08-11T00:13:34.931Z,7.00
2022-08-11T00:16:02.775Z,5.00
2022-08-11T00:18:30.434Z,6.20
2022-08-11T00:20:58.353Z,8.00
2022-08-11T00:23:26.329Z,7.20
2022-08-11T00:25:54.104Z,7.00
2022-08-11T00:28:21.728Z,7.00
2022-08-11T00:30:49.515Z,7.00
2022-08-11T00:33:17.214Z,2.00
2022-08-11T00:35:50.908Z,8.00
2022-08-11T00:38:25.287Z,7.00
2022-08-11T00:40:52.942Z,7.00
2022-08-11T00:43:21.117Z,5.80
2022-08-11T00:45:48.977Z,7.80
2022-08-11T00:48:16.647Z,7.20
2022-08-11T00:50:44.415Z,8.60
2022-08-11T00:53:12.353Z,7.00
2022-08-11T00:55:40.658Z,7.00
2022-08-11T00:58:08.337Z,7.20
2022-08-11T01:00:36.097Z,6.80
2022-08-11T01:03:04.153Z,8.20
2022-08-11T01:05:31.794Z,8.00
2022-08-11T01:08:02.819Z,8.20
2022-08-11T01:10:31.097Z,6.80
2022-08-11T01:12:59.002Z,9.00
2022-08-11T01:15:26.762Z,7.00
2022-08-11T01:17:54.436Z,9.00
2022-08-11T01:20:44.889Z,7.00
2022-08-11T01:23:12.579Z,7.00
2022-08-11T01:25:56.903Z,7.40
2022-08-11T01:28:24.983Z,8.00
2022-08-11T01:30:54.330Z,5.60
2022-08-11T01:33:22.577Z,6.80
2022-08-11T01:35:50.256Z,7.40
2022-08-11T01:38:17.934Z,7.00
2022-08-11T01:40:45.612Z,9.20
2022-08-11T01:43:30.823Z,5.20
2022-08-11T01:45:58.590Z,7.40
2022-08-11T01:48:26.447Z,6.25
2022-08-11T01:50:54.109Z,9.60
2022-08-11T01:53:21.764Z,9.50
2022-08-11T01:55:49.395Z,5.50
2022-08-11T01:58:17.120Z,6.50
2022-08-11T02:00:45.134Z,9.50
2022-08-11T02:03:12.853Z,9.50
2022-08-11T02:05:40.493Z,9.00
2022-08-11T02:08:08.250Z,9.25
2022-08-11T02:10:57.122Z,10.00
2022-08-11T02:13:35.700Z,9.75
2022-08-11T02:16:04.840Z,7.00
2022-08-11T02:18:52.469Z,9.75
2022-08-11T02:21:37.711Z,9.00
2022-08-11T02:24:07.993Z,8.75
2022-08-11T02:26:35.768Z,7.00
2022-08-11T02:29:03.456Z,7.00
2022-08-11T02:32:14.750Z,10.50
2022-08-11T02:34:37.392Z,9.75
2022-08-11T02:37:05.353Z,10.00
2022-08-11T02:39:33.028Z,9.50
2022-08-11T02:42:35.255Z,9.00
2022-08-11T02:45:04.054Z,7.00
2022-08-11T02:47:31.629Z,9.00
2022-08-11T02:50:00.072Z,12.00
2022-08-11T02:52:34.763Z,6.50
2022-08-11T02:55:02.857Z,9.00
2022-08-11T02:57:30.487Z,9.75
2022-08-11T02:59:58.208Z,7.00
2022-08-11T03:02:28.002Z,9.50
2022-08-11T03:04:55.892Z,12.00
2022-08-11T03:07:28.069Z,13.25
2022-08-11T03:09:57.030Z,9.00
2022-08-11T03:12:41.910Z,11.50
2022-08-11T03:15:27.126Z,8.50
2022-08-11T03:17:54.765Z,6.75
2022-08-11T03:20:22.834Z,9.00
2022-08-11T03:22:50.543Z,10.25
2022-08-11T03:25:18.549Z,9.00
2022-08-11T03:27:46.151Z,10.00
2022-08-11T03:30:13.739Z,9.25
2022-08-11T03:32:41.476Z,9.00
2022-08-11T03:35:08.094Z,12.75
2022-08-11T03:37:52.175Z,11.50
2022-08-11T03:40:40.104Z,9.00
2022-08-11T03:43:07.876Z,9.25
2022-08-11T03:45:41.052Z,12.25
2022-08-11T03:48:08.953Z,7.00
2022-08-11T03:50:36.564Z,9.25
2022-08-11T03:53:04.289Z,9.75
2022-08-11T03:55:32.804Z,9.00
2022-08-11T03:58:00.407Z,9.75
2022-08-11T04:00:28.017Z,10.50
2022-08-11T04:02:55.714Z,10.00
2022-08-11T04:05:24.903Z,10.25
2022-08-11T04:07:52.915Z,6.50
2022-08-11T04:10:20.555Z,9.75
2022-08-11T04:12:48.215Z,9.75
2022-08-11T04:15:29.911Z,10.00
2022-08-11T04:17:57.982Z,10.25
2022-08-11T04:20:25.751Z,11.00
2022-08-11T04:22:54.367Z,9.00
2022-08-11T04:25:22.556Z,9.50
2022-08-11T04:27:50.233Z,9.25
2022-08-11T04:30:18.053Z,11.50
2022-08-11T04:32:47.334Z,12.00
2022-08-11T04:35:15.418Z,11.50
2022-08-11T04:37:43.101Z,9.00
2022-08-11T04:40:11.774Z,11.00
2022-08-11T04:42:57.376Z,10.75
2022-08-11T04:45:25.036Z,11.00
2022-08-11T04:48:09.942Z,9.00
2022-08-11T04:51:08.781Z,12.50
2022-08-11T04:54:00.291Z,10.00
2022-08-11T04:56:45.565Z,9.00
2022-08-11T04:59:30.621Z,9.75
2022-08-11T05:01:58.409Z,11.00
2022-08-11T05:04:43.570Z,11.00
2022-08-11T05:07:11.264Z,9.50
2022-08-11T05:09:38.955Z,10.00
2022-08-11T05:12:06.671Z,7.50
2022-08-11T05:14:52.037Z,9.50
2022-08-11T05:17:37.109Z,9.00
2022-08-11T05:20:21.998Z,9.50
2022-08-11T05:23:07.060Z,12.50
2022-08-11T05:26:44.926Z,10.00
2022-08-11T05:28:57.558Z,9.50
2022-08-11T05:31:42.662Z,12.50
2022-08-11T05:34:29.467Z,12.25
2022-08-11T05:37:17.167Z,7.00
2022-08-11T05:40:02.878Z,12.00
2022-08-11T05:42:48.174Z,12.50
2022-08-11T05:45:58.146Z,10.20
2022-08-11T05:48:38.633Z,9.80
2022-08-11T05:51:30.251Z,12.00
2022-08-11T05:54:28.748Z,12.00
2022-08-11T05:56:57.270Z,9.60
2022-08-11T05:59:25.828Z,12.40
2022-08-11T06:01:53.622Z,11.20
2022-08-11T06:04:21.406Z,9.00
2022-08-11T06:06:51.116Z,9.20
2022-08-11T06:09:18.762Z,9.80
2022-08-11T06:11:46.484Z,8.20
2022-08-11T06:14:15.786Z,11.20
2022-08-11T06:16:43.835Z,10.00
2022-08-11T06:19:11.682Z,7.00
2022-08-11T06:21:39.265Z,7.60
2022-08-11T06:24:07.969Z,7.60
2022-08-11T06:26:49.580Z,10.20
2022-08-11T06:29:23.326Z,12.60
2022-08-11T06:32:06.126Z,2.00
2022-08-11T06:34:34.290Z,10.40
2022-08-11T06:37:02.366Z,10.60
2022-08-11T06:39:30.195Z,11.00
2022-08-11T06:41:57.866Z,8.20
2022-08-11T06:44:25.877Z,9.00
2022-08-11T06:46:54.804Z,8.60
2022-08-11T06:49:40.197Z,8.00
2022-08-11T06:52:34.730Z,9.20
2022-08-11T06:54:57.388Z,7.00
2022-08-11T06:57:45.236Z,10.80
2022-08-11T07:00:33.142Z,12.00
2022-08-11T07:03:02.328Z,8.00
2022-08-11T07:05:30.279Z,12.00
2022-08-11T07:08:33.277Z,9.80
2022-08-11T07:11:20.232Z,9.00
2022-08-11T07:14:05.568Z,10.00
2022-08-11T07:16:34.866Z,11.40
2022-08-11T07:19:20.274Z,11.80
2022-08-11T07:22:05.590Z,8.00
2022-08-11T07:25:01.483Z,9.00
2022-08-11T07:27:48.375Z,10.00
2022-08-11T07:30:16.093Z,8.80
2022-08-11T07:32:43.694Z,10.80
2022-08-11T07:35:13.463Z,9.60
2022-08-11T07:37:41.541Z,8.80
2022-08-11T07:40:09.256Z,9.60
2022-08-11T07:42:37.464Z,8.40
2022-08-11T07:45:28.055Z,9.00
2022-08-11T07:48:13.032Z,10.20
2022-08-11T07:50:58.062Z,10.20
2022-08-11T07:53:26.207Z,9.80
2022-08-11T07:55:53.855Z,10.20
2022-08-11T07:58:45.185Z,9.60
2022-08-11T08:01:37.400Z,9.80
2022-08-11T08:04:22.675Z,8.20
2022-08-11T08:07:07.936Z,8.00
2022-08-11T08:09:52.947Z,8.00
2022-08-11T08:12:38.474Z,7.00
2022-08-11T08:15:23.736Z,11.00
2022-08-11T08:18:09.348Z,8.20
2022-08-11T08:20:45.557Z,11.60
2022-08-11T08:23:13.244Z,11.60
2022-08-11T08:25:41.147Z,9.80
2022-08-11T08:28:08.830Z,12.00
2022-08-11T08:30:47.687Z,12.00
2022-08-11T08:33:15.717Z,10.40
2022-08-11T08:35:54.515Z,9.20
2022-08-11T08:38:23.919Z,9.60
2022-08-11T08:40:51.848Z,10.60
2022-08-11T08:43:19.744Z,10.20
2022-08-11T08:45:47.424Z,12.20
2022-08-11T08:48:15.226Z,10.80
2022-08-11T08:51:00.152Z,10.00
2022-08-11T08:53:32.970Z,8.80
2022-08-11T08:56:00.649Z,9.00
2022-08-11T08:58:28.368Z,10.20
2022-08-11T09:00:56.115Z,7.00
2022-08-11T09:04:04.787Z,10.00
2022-08-11T09:06:12.670Z,9.40
2022-08-11T09:08:41.084Z,8.60
2022-08-11T09:11:26.283Z,9.00
2022-08-11T09:14:05.059Z,10.00
2022-08-11T09:16:35.172Z,10.20
2022-08-11T09:19:03.264Z,10.00
2022-08-11T09:21:48.046Z,9.80
2022-08-11T09:24:34.853Z,9.40
2022-08-11T09:27:04.184Z,12.00
2022-08-11T09:29:31.848Z,9.80
2022-08-11T09:31:59.492Z,10.00
2022-08-11T09:34:27.677Z,9.00
2022-08-11T09:37:12.794Z,9.80
2022-08-11T09:39:58.159Z,10.00
2022-08-11T09:42:46.647Z,9.60
2022-08-11T09:45:13.673Z,9.20
2022-08-11T09:47:41.741Z,11.80
2022-08-11T09:50:09.537Z,9.20
2022-08-11T09:52:37.546Z,13.00
2022-08-11T09:55:06.415Z,10.00
2022-08-11T09:57:51.738Z,8.20
2022-08-11T10:00:21.111Z,9.80
2022-08-11T10:02:48.799Z,10.00
2022-08-11T10:05:39.599Z,10.20
2022-08-11T10:08:07.350Z,11.00
2022-08-11T10:10:35.407Z,9.00
2022-08-11T10:13:04.373Z,9.60
2022-08-11T10:15:38.673Z,10.80
2022-08-11T10:18:23.722Z,10.00
2022-08-11T10:20:51.672Z,9.20
2022-08-11T10:24:00.436Z,9.00
2022-08-11T10:26:42.830Z,11.00
2022-08-11T10:29:24.600Z,9.00
2022-08-11T10:32:17.800Z,10.00
2022-08-11T10:34:51.221Z,9.80
2022-08-11T10:38:08.748Z,9.40
2022-08-11T10:40:15.878Z,10.20
2022-08-11T10:43:01.483Z,10.00
2022-08-11T10:45:47.129Z,9.20
2022-08-11T10:48:15.598Z,11.00
2022-08-11T10:51:00.947Z,9.80
2022-08-11T10:53:45.792Z,10.20
2022-08-11T10:56:31.179Z,10.40
2022-08-11T10:59:03.980Z,9.80
2022-08-11T11:01:32.032Z,10.00
2022-08-11T11:03:59.840Z,10.20
2022-08-11T11:06:29.822Z,8.00
2022-08-11T11:09:03.697Z,10.00
2022-08-11T11:11:46.162Z,9.80
2022-08-11T11:14:31.488Z,9.00
2022-08-11T11:17:19.941Z,11.00
2022-08-11T11:19:47.634Z,9.80
2022-08-11T11:22:32.960Z,10.40
2022-08-11T11:25:00.719Z,10.00
2022-08-11T11:27:28.467Z,10.60
2022-08-11T11:29:56.441Z,10.40
2022-08-11T11:32:24.159Z,11.80
2022-08-11T11:34:53.997Z,9.40
2022-08-11T11:37:22.057Z,10.60
2022-08-11T11:39:49.917Z,7.60
2022-08-11T11:42:17.705Z,9.80
2022-08-11T11:44:45.889Z,9.40
2022-08-11T11:47:13.521Z,11.00
2022-08-11T11:49:41.219Z,10.00
2022-08-11T11:52:09.192Z,10.00
2022-08-11T11:54:37.218Z,8.00
2022-08-11T11:57:30.632Z,11.80
2022-08-11T12:00:16.136Z,9.40
2022-08-11T12:02:44.280Z,9.80
2022-08-11T12:05:12.039Z,11.40
2022-08-11T12:08:05.132Z,8.00
2022-08-11T12:10:38.375Z,11.20
2022-08-11T12:13:23.660Z,9.20
2022-08-11T12:16:32.824Z,10.00
2022-08-11T12:18:39.049Z,10.80
2022-08-11T12:21:06.702Z,7.00
2022-08-11T12:23:51.876Z,7.00
2022-08-11T12:26:36.976Z,11.00
2022-08-11T12:29:05.314Z,10.20
2022-08-11T12:31:32.943Z,12.00
2022-08-11T12:34:00.801Z,9.60
2022-08-11T12:36:28.516Z,9.00
2022-08-11T12:38:56.615Z,9.00
2022-08-11T12:41:42.261Z,10.60
2022-08-11T12:44:27.374Z,10.80
2022-08-11T12:46:55.120Z,9.40
2022-08-11T12:49:51.742Z,11.00
2022-08-11T12:52:19.481Z,10.00
2022-08-11T12:54:47.253Z,11.80
2022-08-11T12:57:36.836Z,10.00
2022-08-11T13:00:22.780Z,8.00
2022-08-11T13:03:08.127Z,11.00
2022-08-11T13:05:44.341Z,10.00
2022-08-11T13:08:14.051Z,9.80
2022-08-11T13:10:59.707Z,10.60
2022-08-11T13:13:54.781Z,10.20
2022-08-11T13:16:15.751Z,9.00
2022-08-11T13:18:43.736Z,10.00
2022-08-11T13:21:11.452Z,9.60
2022-08-11T13:23:59.625Z,8.00
2022-08-11T13:26:43.504Z,9.80
2022-08-11T13:29:16.587Z,11.20
2022-08-11T13:31:44.325Z,10.40
2022-08-11T13:34:12.117Z,10.20
2022-08-11T13:36:39.957Z,11.60
2022-08-11T13:39:08.199Z,9.00
2022-08-11T13:41:44.226Z,13.40
2022-08-11T13:44:12.548Z,12.60
2022-08-11T13:46:44.388Z,12.40
2022-08-11T13:49:12.252Z,11.00
2022-08-11T13:51:40.236Z,11.00
2022-08-11T13:54:09.076Z,10.80
2022-08-11T13:56:36.932Z,11.80
2022-08-11T13:59:04.616Z,9.60
2022-08-11T14:02:22.681Z,11.00
2022-08-11T14:04:28.942Z,10.00
2022-08-11T14:07:00.300Z,12.00
2022-08-11T14:09:28.345Z,9.60
2022-08-11T14:12:22.124Z,10.40
2022-08-11T14:14:51.743Z,11.00
2022-08-11T14:17:48.437Z,11.00
2022-08-11T14:20:37.833Z,11.80
2022-08-11T14:22:53.828Z,10.20
2022-08-11T14:25:21.541Z,11.40
2022-08-11T14:28:29.786Z,11.60
2022-08-11T14:31:01.141Z,11.80
2022-08-11T14:33:58.825Z,11.40
2022-08-11T14:36:17.440Z,11.40
2022-08-11T14:38:45.171Z,10.00
2022-08-11T14:41:30.475Z,11.00
2022-08-11T14:44:15.806Z,13.00
2022-08-11T14:47:00.795Z,12.20
2022-08-11T14:49:28.599Z,12.00
2022-08-11T14:51:57.285Z,12.80
2022-08-11T14:54:38.780Z,11.00
2022-08-11T14:57:06.476Z,11.60
2022-08-11T14:59:34.380Z,11.00
2022-08-11T15:02:19.522Z,11.00
2022-08-11T15:04:47.138Z,12.00
2022-08-11T15:07:16.995Z,11.60
2022-08-11T15:10:11.584Z,11.60
2022-08-11T15:12:33.716Z,11.60
2022-08-11T15:15:27.411Z,13.20
2022-08-11T15:17:55.103Z,11.40
2022-08-11T15:20:40.040Z,12.80
2022-08-11T15:23:25.283Z,11.20
2022-08-11T15:25:53.052Z,11.00
2022-08-11T15:28:38.446Z,10.00
2022-08-11T15:31:23.789Z,12.00
2022-08-11T15:34:08.722Z,10.80
2022-08-11T15:36:54.181Z,9.60
2022-08-11T15:39:23.212Z,11.00
2022-08-11T15:42:08.364Z,10.40
2022-08-11T15:45:03.251Z,12.00
2022-08-11T15:47:31.459Z,13.00
2022-08-11T15:50:12.476Z,12.40
2022-08-11T15:52:41.499Z,9.20
2022-08-11T15:55:09.231Z,13.00
2022-08-11T15:57:54.419Z,12.80
2022-08-11T16:00:39.672Z,11.00
2022-08-11T16:03:24.720Z,8.40
2022-08-11T16:06:13.423Z,13.00
2022-08-11T16:08:41.145Z,12.40
2022-08-11T16:11:09.264Z,10.20
2022-08-11T16:13:54.932Z,13.20
2022-08-11T16:16:22.642Z,13.20
2022-08-11T16:18:51.706Z,10.80
2022-08-11T16:21:34.129Z,13.00
2022-08-11T16:24:03.886Z,8.40
2022-08-11T16:27:08.004Z,12.40
2022-08-11T16:29:19.413Z,11.00
2022-08-11T16:32:07.548Z,13.00
2022-08-11T16:34:52.633Z,12.20
2022-08-11T16:37:37.846Z,12.40
2022-08-11T16:40:05.870Z,12.00
2022-08-11T16:43:00.163Z,14.60
2022-08-11T16:45:55.691Z,12.80
2022-08-11T16:48:36.520Z,11.00
2022-08-11T16:51:05.712Z,11.00
2022-08-11T16:54:00.355Z,12.80
2022-08-11T16:56:21.134Z,11.80
2022-08-11T16:59:06.177Z,12.60
2022-08-11T17:01:34.139Z,12.00
2022-08-11T17:04:19.470Z,12.80
2022-08-11T17:07:04.008Z,13.40
2022-08-11T17:10:39.051Z,11.60
2022-08-11T17:13:11.824Z,14.80
2022-08-11T17:15:57.478Z,11.40
2022-08-11T17:18:38.932Z,13.00
2022-08-11T17:21:06.827Z,11.80
2022-08-11T17:23:50.106Z,14.00
2022-08-11T17:26:18.218Z,11.40
2022-08-11T17:28:45.884Z,11.00
2022-08-11T17:31:30.845Z,9.80
2022-08-11T17:34:15.967Z,11.00
2022-08-11T17:36:45.765Z,12.80
2022-08-11T17:39:14.056Z,13.00
2022-08-11T17:41:59.337Z,12.20
2022-08-11T17:44:44.405Z,11.00
2022-08-11T17:47:29.392Z,12.80
2022-08-11T17:49:57.085Z,12.00
2022-08-11T17:53:02.563Z,11.60
2022-08-11T17:55:51.550Z,11.40
2022-08-11T17:58:38.589Z,9.80
2022-08-11T18:01:09.269Z,9.60
2022-08-11T18:03:39.723Z,11.40
2022-08-11T18:06:07.901Z,11.80
2022-08-11T18:08:58.054Z,12.00
2022-08-11T18:12:09.892Z,12.00
2022-08-11T18:14:48.339Z,12.20
2022-08-11T18:17:33.405Z,10.00
2022-08-11T18:20:18.468Z,10.40
2022-08-11T18:23:03.562Z,11.20
2022-08-11T18:25:48.820Z,8.80
2022-08-11T18:28:33.773Z,9.80
2022-08-11T18:31:19.051Z,12.20
2022-08-11T18:34:07.395Z,10.00
2022-08-11T18:36:53.708Z,11.00
2022-08-11T18:39:38.754Z,9.00
2022-08-11T18:42:29.658Z,10.60
2022-08-11T18:45:15.261Z,7.20
2022-08-11T18:48:00.278Z,10.40
2022-08-11T18:50:47.352Z,11.00
2022-08-11T18:53:46.156Z,9.80
2022-08-11T18:56:31.529Z,10.20
2022-08-11T18:59:16.604Z,9.60
2022-08-11T19:02:01.703Z,11.20
2022-08-11T19:04:47.019Z,10.00
2022-08-11T19:07:32.052Z,10.80
2022-08-11T19:10:16.968Z,10.20
2022-08-11T19:13:02.355Z,10.00
2022-08-11T19:15:47.319Z,10.60
2022-08-11T19:18:32.470Z,10.80
2022-08-11T19:21:17.426Z,8.20
2022-08-11T19:24:02.456Z,8.40
2022-08-11T19:26:47.832Z,9.40
2022-08-11T19:30:11.069Z,9.60
2022-08-11T19:32:40.649Z,13.00
2022-08-11T19:35:25.944Z,11.40
2022-08-11T19:38:10.849Z,9.60
2022-08-11T19:40:55.954Z,8.00
2022-08-11T19:43:41.135Z,9.20
2022-08-11T19:46:26.342Z,9.60
2022-08-11T19:49:11.470Z,10.20
2022-08-11T19:51:56.539Z,11.80
2022-08-11T19:54:41.830Z,12.00
2022-08-11T19:57:27.105Z,9.40
2022-08-11T20:00:12.101Z,10.40
2022-08-11T20:02:57.376Z,11.00
2022-08-11T20:05:55.684Z,11.00
2022-08-11T20:08:45.071Z,8.80
2022-08-11T20:11:30.434Z,10.00
2022-08-11T20:14:15.406Z,10.80
2022-08-11T20:17:00.338Z,12.00
2022-08-11T20:19:55.481Z,10.80
2022-08-11T20:22:41.895Z,11.00
2022-08-11T20:25:27.393Z,12.60
2022-08-11T20:28:12.361Z,10.80
2022-08-11T20:30:57.565Z,9.00
2022-08-11T20:33:42.942Z,11.60
2022-08-11T20:36:28.296Z,11.40
2022-08-11T20:39:13.397Z,12.40
2022-08-11T20:41:59.590Z,10.00
2022-08-11T20:44:44.629Z,10.00
2022-08-11T20:47:29.638Z,11.60
2022-08-11T20:50:20.301Z,13.20
2022-08-11T20:53:05.991Z,13.80
2022-08-11T20:55:53.759Z,13.40
2022-08-11T21:01:44.591Z,16.80
2022-08-11T21:04:31.001Z,16.20
2022-08-11T21:07:28.316Z,16.00
2022-08-11T21:10:22.774Z,13.60
2022-08-11T21:13:25.545Z,6.40
2022-08-11T21:16:22.726Z,15.20
2022-08-11T21:19:11.920Z,18.80
2022-08-11T21:21:57.161Z,17.40
2022-08-11T21:24:42.973Z,15.00
2022-08-11T21:27:32.469Z,16.00
2022-08-11T21:30:17.553Z,13.60
2022-08-11T21:33:02.940Z,13.20
2022-08-11T21:35:48.053Z,16.20
2022-08-11T21:38:33.115Z,13.00
2022-08-11T21:41:18.593Z,14.20
2022-08-11T21:44:03.731Z,15.40
2022-08-11T21:46:53.859Z,13.80
2022-08-11T21:49:39.008Z,15.20
2022-08-11T21:52:24.204Z,12.60
2022-08-11T21:55:09.592Z,14.20
2022-08-11T21:57:54.978Z,13.60
2022-08-11T22:00:39.950Z,14.40
2022-08-11T22:03:26.320Z,12.20
2022-08-11T22:06:12.033Z,13.40
2022-08-11T22:08:56.996Z,14.60
2022-08-11T22:11:42.521Z,13.20
2022-08-11T22:14:27.523Z,17.80
2022-08-11T22:17:12.511Z,16.60
2022-08-11T22:19:57.546Z,11.40
2022-08-11T22:22:49.088Z,14.20
2022-08-11T22:25:39.067Z,10.40
2022-08-11T22:28:29.486Z,15.60
2022-08-11T22:31:14.949Z,14.60
2022-08-11T22:34:00.247Z,15.20
2022-08-11T22:36:48.158Z,17.00
2022-08-11T22:39:35.677Z,12.60
2022-08-11T22:42:24.082Z,17.00
2022-08-11T22:45:18.357Z,16.00
2022-08-11T22:48:03.298Z,16.60
2022-08-11T22:50:48.249Z,16.40
2022-08-11T22:53:57.253Z,13.20
2022-08-11T22:56:38.679Z,13.20
2022-08-11T22:59:23.805Z,13.40
2022-08-11T23:02:09.318Z,9.00
2022-08-11T23:04:54.575Z,15.40
2022-08-11T23:07:49.545Z,13.20
2022-08-11T23:10:36.238Z,15.00
2022-08-11T23:13:22.120Z,14.00
2022-08-11T23:16:08.181Z,14.80
2022-08-11T23:18:53.150Z,15.25
2022-08-11T23:21:38.958Z,10.40
2022-08-11T23:24:24.747Z,14.00
2022-08-11T23:27:10.065Z,16.80
2022-08-11T23:29:55.078Z,13.60
2022-08-11T23:32:40.489Z,14.00
2022-08-11T23:35:37.767Z,15.80
2022-08-11T23:38:25.962Z,12.00
2022-08-11T23:41:11.402Z,14.00
2022-08-11T23:43:56.369Z,16.25
2022-08-11T23:46:41.605Z,13.20
2022-08-11T23:49:26.566Z,9.40
2022-08-11T23:52:11.734Z,16.40
2022-08-11T23:54:57.091Z,13.60
2022-08-11T23:57:47.806Z,14.00
